• Join FlightAware (Why Join?)
  • Login
  • US Flag 
07:21AM EDT


 

Airport Tracker/Info


-or-


 

Live Flight TrackerFlight Track Log ✈ SWA2258 ✈ 20-Jul-2013 ✈ KMCO - KSAT

Flight Track Log - Related Links

Times and Time Zones

All times are in EDT time to prevent confusion due to time zone crossing. See the SWA2258 flight status page for this flight to view local times or setup timezone preferences in your user account.

Time Position Orientation Groundspeed Altitude Reporting Facility
EDT Latitude Longitude Course Direction KTS MPH feet Rate Location/Type
11:50AM 28.3580 -81.5940 276° West 334 384 11,000  Level FlightAware
11:51AM 28.3650 -81.6930 275° West 348 400 13,500 2,760 Climbing FlightAware
11:52AM 28.3680 -81.7700 273° West 363 418 15,300 1,320 Climbing FlightAware
11:52AM 28.3710 -81.8350 273° West 363 418 15,300 2,160 Level FlightAware
11:53AM 28.3580 -81.9160 260° West 18,400 3,360 Climbing FlightAware
11:54AM 28.3440 -81.9750 255° West 388 447 19,500 1,680 Climbing FlightAware
11:55AM 28.3190 -82.0840 255° West 401 461 21,200 1,740 Climbing FlightAware
11:55AM 28.2980 -82.1720 255° West 408 470 22,600 1,680 Climbing FlightAware
11:56AM 28.2770 -82.2620 255° West 422 486 23,500 1,680 Climbing FlightAware
11:57AM 28.2500 -82.3810 256° West 435 501 24,900 1,680 Climbing FlightAware
11:57AM 28.2260 -82.4820 255° West 440 506 26,000 1,500 Climbing FlightAware
11:58AM 28.2070 -82.5600 255° West 444 511 26,900 1,320 Climbing FlightAware
11:59AM 28.1880 -82.6400 255° West 450 518 27,600 1,140 Climbing FlightAware
11:59AM 28.1720 -82.7080 255° West 454 522 28,300 960 Climbing FlightAware
12:00PM 28.1560 -82.7770 255° West 455 524 28,900 720 Climbing FlightAware
12:01PM 28.1220 -82.9230 255° West 461 531 29,600 1,380 Climbing FlightAware
12:02PM 28.0830 -83.0810 254° West 463 533 31,600 1,980 Climbing FlightAware
12:02PM 28.0690 -83.1380 254° West 463 533 32,100 1,200 Climbing FlightAware
12:03PM 28.0470 -83.2330 255° West 463 533 32,900 1,140 Climbing FlightAware
12:04PM 28.0250 -83.3520 258° West 462 532 34,000 1,020 Climbing FlightAware
12:05PM 28.0390 -83.4590 278° West 460 529 34,800 1,140 Climbing FlightAware
12:05PM 28.0620 -83.5760 283° West 456 525 35,700 960 Climbing FlightAware
12:06PM 28.0790 -83.6560 284° West 453 521 36,000 180 Climbing FlightAware
12:07PM 28.1000 -83.7620 283° West 454 522 36,000  Level FlightAware
12:07PM 28.1190 -83.8650 282° West 451 519 36,000  Level FlightAware
12:08PM 28.1370 -83.9550 283° West 451 519 36,000  Level FlightAware
12:09PM 28.1590 -84.0710 282° West 449 517 36,000  Level FlightAware
12:10PM 28.1860 -84.2180 282° West 449 517 36,000  Level FlightAware
12:11PM 28.2000 -84.2880 283° West 449 517 36,000  Level FlightAware
12:12PM 28.2170 -84.3820 282° West 449 517 36,000  Level FlightAware
12:12PM 28.2300 -84.4530 282° West 449 517 36,000  Level FlightAware
12:13PM 28.2740 -84.6760 283° West 451 519 36,000  Level FlightAware
12:14PM 28.2890 -84.7540 282° West 451 519 36,000  Level FlightAware
12:19PM 28.4360 -85.5550 282° West 465 535 36,000  Level FlightAware
12:20PM 28.4550 -85.6600 282° West 465 535 36,000  Level FlightAware
12:21PM 28.4710 -85.7530 281° West 463 533 36,000  Level FlightAware
12:22PM 28.4880 -85.8480 282° West 463 533 36,000  Level FlightAware
12:22PM 28.5030 -85.9370 281° West 463 533 36,000  Level FlightAware
12:23PM 28.5190 -86.0250 282° West 461 531 36,000  Level FlightAware
12:24PM 28.5320 -86.1000 281° West 461 531 36,000  Level FlightAware
12:25PM 28.5640 -86.2750 282° West 459 528 36,000  Level FlightAware
12:26PM 28.5960 -86.4600 281° West 458 527 36,000  Level FlightAware
12:26PM 28.6120 -86.5490 282° West 458 527 36,000  Level FlightAware
12:27PM 28.6280 -86.6470 281° West 457 526 36,000  Level FlightAware
12:28PM 28.6450 -86.7450 281° West 456 525 36,000  Level FlightAware
12:29PM 28.6650 -86.8520 282° West 456 525 36,000  Level FlightAware
12:29PM 28.7010 -86.9500 293° West 459 528 36,000  Level FlightAware
12:30PM 28.7330 -87.0310 294° West 459 528 36,000  Level FlightAware
12:31PM 28.7730 -87.1320 294° West 460 529 36,000  Level FlightAware
12:31PM 28.8110 -87.2250 295° West 459 528 36,000  Level FlightAware
12:33PM 28.8660 -87.3590 295° West 459 528 36,000  Level FlightAware
12:33PM 28.8990 -87.4330 297° West 458 527 36,000  Level FlightAware
12:34PM 28.9380 -87.5150 299° West 458 527 36,000  Level FlightAware
12:35PM 28.9980 -87.6380 299° West 458 527 36,000  Level FlightAware
12:35PM 29.0460 -87.7290 301° West 458 527 36,000  Level FlightAware
12:36PM 29.0960 -87.8200 302° West 460 529 36,000  Level FlightAware
12:37PM 29.1390 -87.8990 302° West 459 528 36,000  Level FlightAware
12:37PM 29.1730 -87.9610 302° West 460 529 36,000  Level FlightAware
12:38PM 29.2240 -88.0520 303° West 460 529 36,000  Level FlightAware
12:39PM 29.2870 -88.1610 304° West 463 533 36,000  Level FlightAware
12:39PM 29.3320 -88.2340 305° West 464 534 36,000  Level FlightAware
12:41PM 29.4210 -88.3770 306° West 463 533 36,000  Level FlightAware
12:41PM 29.4670 -88.4490 306° West 462 532 36,000  Level FlightAware
12:42PM 29.5160 -88.5270 306° West 461 531 36,000  Level FlightAware
12:43PM 29.5680 -88.6120 305° West 457 526 36,000  Level FlightAware
12:43PM 29.5980 -88.6810 297° West 450 518 36,000  Level FlightAware
12:44PM 29.6310 -88.7640 295° West 448 516 36,000  Level FlightAware
12:45PM 29.6800 -88.9210 290° West 438 504 36,000  Level FlightAware
12:46PM 29.6950 -89.0410 278° West 435 501 36,000  Level FlightAware
12:47PM 29.7030 -89.1450 275° West 438 504 36,000  Level FlightAware
12:47PM 29.7090 -89.2440 274° West 437 503 36,000  Level FlightAware
12:48PM 29.7150 -89.3470 274° West 437 503 36,000  Level FlightAware
12:49PM 29.7200 -89.4280 274° West 436 502 36,000  Level FlightAware
12:49PM 29.7250 -89.5060 274° West 435 501 36,000  Level FlightAware
12:50PM 29.7610 -89.6460 287° West 441 507 36,000  Level FlightAware
12:51PM 29.7860 -89.7250 290° West 438 504 36,000  Level FlightAware
12:52PM 29.8340 -89.8540 293° West 436 502 36,000  Level FlightAware
12:53PM 29.8520 -89.9540 282° West 426 490 36,000  Level FlightAware
12:53PM 29.8570 -90.0440 274° West 423 487 36,000  Level FlightAware
12:54PM 29.8600 -90.1320 272° West 422 486 36,000  Level FlightAware
12:55PM 29.8620 -90.2030 272° West 424 488 36,000  Level FlightAware
12:55PM 29.8650 -90.2820 273° West 427 491 36,000  Level FlightAware
12:56PM 29.8700 -90.4090 273° West 428 493 36,000  Level FlightAware
12:57PM 29.8730 -90.5090 272° West 429 494 36,000  Level FlightAware
12:57PM 29.8760 -90.6010 272° West 430 495 36,000  Level FlightAware
12:58PM 29.8790 -90.6840 272° West 429 494 36,000  Level FlightAware
12:59PM 29.8830 -90.7820 273° West 429 494 36,000  Level FlightAware
01:00PM 29.8850 -90.8600 272° West 429 494 36,000  Level FlightAware
01:00PM 29.8900 -90.9920 273° West 428 493 36,000  Level FlightAware
01:01PM 29.8920 -91.0710 272° West 428 493 36,000  Level FlightAware
01:02PM 29.8960 -91.2090 272° West 428 493 36,000  Level FlightAware
01:03PM 29.8980 -91.2850 272° West 428 493 36,000  Level FlightAware
01:03PM 29.9000 -91.3530 272° West 428 493 36,000  Level FlightAware
01:04PM 29.9030 -91.4460 272° West 428 493 36,000  Level FlightAware
01:05PM 29.9060 -91.5370 272° West 428 493 36,000  Level FlightAware
01:06PM 29.9080 -91.6090 272° West 428 493 36,000  Level FlightAware
01:06PM 29.9100 -91.6770 272° West 428 493 36,000  Level FlightAware
01:07PM 29.9130 -91.7720 272° West 428 493 36,000  Level FlightAware
01:08PM 29.9150 -91.8420 272° West 428 493 36,000  Level FlightAware
01:09PM 29.9180 -91.9390 272° West 428 493 36,000  Level FlightAware
01:09PM 29.9210 -92.0160 273° West 428 493 36,000  Level FlightAware
01:10PM 29.9230 -92.0920 272° West 428 493 36,000  Level FlightAware
01:12PM 29.9980 -92.6990 278° West 445 512 36,000  Level FlightAware
01:13PM 30.0050 -92.7750 276° West 443 510 36,000  Level FlightAware
01:14PM 30.0140 -92.8960 275° West 442 509 36,000  Level FlightAware
01:15PM 30.0180 -93.0010 273° West 439 505 36,000  Level FlightAware
01:15PM 30.0210 -93.0740 273° West 438 504 36,000  Level FlightAware
01:16PM 30.0230 -93.1540 272° West 438 504 36,000  Level FlightAware
01:17PM 30.0240 -93.2960 271° West 436 502 36,000  Level FlightAware
01:18PM 30.0250 -93.3900 271° West 434 499 36,000  Level FlightAware
01:18PM 30.0230 -93.5320 269° West 434 499 36,000  Level FlightAware
01:19PM 30.0190 -93.6320 267° West 437 503 36,000  Level FlightAware
01:20PM 30.0170 -93.7180 268° West 438 504 36,000  Level FlightAware
01:21PM 30.0130 -93.8350 268° West 438 504 36,000  Level FlightAware
01:21PM 30.0110 -93.8910 268° West 439 505 36,000  Level FlightAware
01:22PM 30.0080 -93.9960 268° West 440 506 36,000  Level FlightAware
01:22PM 30.0050 -94.0660 267° West 428 493 36,000  Level FlightAware
01:23PM 30.0020 -94.1680 268° West 422 486 36,000  Level FlightAware
01:24PM 29.9990 -94.2610 268° West 420 483 36,000  Level FlightAware
01:25PM 29.9950 -94.3610 267° West 418 481 36,000  Level FlightAware
01:25PM 29.9910 -94.4850 268° West 418 481 36,000  Level FlightAware
01:26PM 29.9880 -94.5750 268° West 428 493 36,000  Level FlightAware
01:27PM 29.9810 -94.6670 265° West 444 511 36,000  Level FlightAware
01:27PM 29.9750 -94.7730 266° West 446 513 36,000  Level FlightAware
01:28PM 29.9740 -94.8710 269° West 447 514 36,000  Level FlightAware
01:29PM 29.9720 -94.9780 269° West 446 513 36,000  Level FlightAware
01:30PM 29.9570 -95.0740 260° West 450 518 36,000  Level FlightAware
01:30PM 29.9430 -95.1460 257° West 449 517 36,000  Level FlightAware
01:31PM 29.9330 -95.2180 261° West 449 517 36,000  Level FlightAware
01:32PM 29.9150 -95.3300 260° West 450 518 36,000  Level FlightAware
01:32PM 29.9010 -95.4200 260° West 451 519 36,000  Level FlightAware
01:33PM 29.8780 -95.5660 260° West 452 520 36,000  Level FlightAware
01:34PM 29.8630 -95.6580 259° West 452 520 36,000  Level FlightAware
01:34PM 29.8470 -95.7600 260° West 452 520 36,000  Level FlightAware
01:35PM 29.8360 -95.8330 260° West 452 520 36,000  Level FlightAware
01:36PM 29.8200 -95.9310 259° West 452 520 36,000  Level FlightAware
01:36PM 29.8050 -96.0230 259° West 452 520 36,000  Level FlightAware
01:37PM 29.7840 -96.1620 260° West 452 520 36,000  Level FlightAware
01:38PM 29.7860 -96.2640 271° West 450 518 36,000  Level FlightAware
01:39PM 29.7930 -96.3610 275° West 451 519 36,000  Level FlightAware
01:39PM 29.7980 -96.4340 275° West 452 520 36,000  Level FlightAware
01:40PM 29.8050 -96.5320 275° West 455 524 36,000  Level FlightAware
01:41PM 29.8130 -96.6410 275° West 455 524 36,000 -1,320 Level FlightAware
01:41PM 29.8220 -96.7590 275° West 453 521 34,200 -3,180 Descending FlightAware
01:42PM 29.8300 -96.8690 275° West 460 529 31,500 -3,420 Descending FlightAware
01:43PM 29.8370 -96.9680 275° West 457 526 29,400 -2,520 Descending FlightAware
01:44PM 29.8430 -97.0450 275° West 451 519 28,000 -2,220 Descending FlightAware
01:44PM 29.8490 -97.1410 274° West 443 510 26,300 -2,520 Descending FlightAware
01:45PM 29.8560 -97.2390 275° West 437 503 24,500 -2,640 Descending FlightAware
01:46PM 29.8630 -97.3400 275° West 429 494 22,700 -2,880 Descending FlightAware
01:46PM 29.8700 -97.4390 275° West 420 483 20,900 -2,820 Descending FlightAware
01:47PM 29.8750 -97.5190 274° West 412 474 19,400 -2,460 Descending FlightAware
01:48PM 29.8820 -97.6170 275° West 404 465 17,600 -2,520 Descending FlightAware
01:48PM 29.8870 -97.6990 274° West 398 458 15,900 -2,580 Descending FlightAware
01:49PM 29.8920 -97.7660 275° West 392 451 14,600 -1,860 Descending FlightAware
01:50PM 29.8850 -97.8910 266° West 367 422 12,600 -1,800 Descending FlightAware
01:51PM 29.8490 -97.9770 244° Southwest 356 410 10,900 -1,860 Descending FlightAware
01:51PM 29.8100 -98.0700 244° Southwest 324 373 9,800 -1,200 Descending FlightAware
01:52PM 29.7920 -98.1130 244° Southwest 305 351 9,500 -600 Descending FlightAware
01:52PM 29.7840 -98.1300 242° Southwest 298 343 9,400 -900 Descending FlightAware
01:53PM 29.7680 -98.1690 245° Southwest 288 331 8,900 -1,260 Descending FlightAware
01:53PM 29.7530 -98.2030 243° Southwest 286 329 8,300 -1,500 Descending FlightAware
01:53PM 29.7380 -98.2400 245° Southwest 289 333 7,600 -1,620 Descending FlightAware
01:54PM 29.7230 -98.2760 244° Southwest 291 335 6,900 -1,440 Descending FlightAware
01:54PM 29.7050 -98.3170 243° Southwest 287 330 6,300 -1,200 Descending FlightAware
01:55PM 29.6950 -98.3470 249° West 283 326 5,900 -780 Descending FlightAware
01:55PM 29.6940 -98.3570 263° West 280 322 5,900 120 Level FlightAware
01:55PM 29.6930 -98.4070 269° West 267 307 6,000 -120 Climbing FlightAware
01:56PM 29.6950 -98.4340 275° West 258 297 5,800 -600 Descending FlightAware
01:56PM 29.6960 -98.4440 277° West 255 293 5,700 -780 Descending FlightAware
01:57PM 29.7010 -98.4870 278° West 249 287 5,100 -540 Descending FlightAware
01:57PM 29.7040 -98.5180 276° West 249 287 5,100 -1,020 Level FlightAware
01:58PM 29.6500 -98.6119 276° West 217 250 3,400 -1,080 Descending Houston Center
01:59PM 29.6153 -98.5803 142° Southeast 171 197 2,800 -720 Descending Houston Center
02:01PM 29.5819 -98.5350 130° Southeast 159 183 2,000 -840 Descending Houston Center
02:01PM 29.5558 -98.5031 133° Southeast 153 176 1,200 -900 Descending Houston Center
02:04PM 29.5340 -98.4691 126° Southeast  Level Estimated
02:11PM 29.5340 -98.4691 128° Southeast  Level Estimated